Time;durP1;ratioP1;P1;durP2;ratioP2;P2;SDS_P1;SDS_P2;PMS_P1;PMS_P2;Temp;Humidity;BMP_temperature;BMP_pressure;BME280_temperature;BME280_humidity;BME280_pressure;Samples;Min_cycle;Max_cycle;Signal;HPM_P1;HPM_P2
2022/07/07 00:00:47;;;;;;;;;;;;;;;22.37;45.17;101363.03;5052244;28;4001;-66
2022/07/07 00:03:13;;;;;;;;;;;;;;;22.37;44.91;101357.28;5051959;28;4492;-66
2022/07/07 00:05:40;;;;;;;;;;;;;;;22.36;45.00;101350.78;5049688;28;4185;-66
2022/07/07 00:08:06;;;;;;;;;;;;;;;22.36;45.10;101355.81;5051299;28;4205;-66
2022/07/07 00:10:33;;;;;;;;;;;;;;;22.37;45.21;101351.50;5050759;28;4167;-66
2022/07/07 00:12:59;;;;;;;;;;;;;;;22.37;44.98;101351.50;5051382;28;4375;-66
2022/07/07 00:15:26;;;;;;;;;;;;;;;22.35;44.98;101345.63;5049970;28;4185;-66
2022/07/07 00:17:52;;;;;;;;;;;;;;;22.36;45.14;101344.25;5049099;28;3975;-66
2022/07/07 00:20:18;;;;;;;;;;;;;;;22.36;44.95;101338.50;5050482;28;4155;-66
2022/07/07 00:22:45;;;;;;;;;;;;;;;22.37;44.94;101337.06;5053114;28;4218;-66
2022/07/07 00:25:11;;;;;;;;;;;;;;;22.35;44.92;101325.44;5051270;28;4168;-67
2022/07/07 00:27:38;;;;;;;;;;;;;;;22.36;44.98;101332.72;5052431;28;4208;-66
2022/07/07 00:30:04;;;;;;;;;;;;;;;22.37;45.00;101339.97;5051188;28;4237;-66
2022/07/07 00:32:31;;;;;;;;;;;;;;;22.37;44.96;101339.97;5051967;28;4230;-66
2022/07/07 00:34:57;;;;;;;;;;;;;;;22.36;45.20;101336.34;5056261;28;5412;-66
2022/07/07 00:37:23;;;;;;;;;;;;;;;22.37;45.19;101334.19;5054950;28;4573;-65
2022/07/07 00:39:50;;;;;;;;;;;;;;;22.37;45.34;101339.97;5056761;28;5514;-66
2022/07/07 00:42:16;;;;;;;;;;;;;;;22.37;45.15;101337.06;5055384;28;5275;-67
2022/07/07 00:44:43;;;;;;;;;;;;;;;22.37;44.96;101334.94;5055406;28;4245;-66
2022/07/07 00:47:09;;;;;;;;;;;;;;;22.37;45.00;101334.19;5059890;28;5536;-66
2022/07/07 00:49:38;;;;;;;;;;;;;;;22.36;45.23;101333.44;5054736;28;4192;-66
2022/07/07 00:52:05;;;;;;;;;;;;;;;22.37;45.25;101334.19;5057429;28;4060;-66
2022/07/07 00:54:31;;;;;;;;;;;;;;;22.36;45.03;101332.72;5054467;28;4200;-66
2022/07/07 00:56:58;;;;;;;;;;;;;;;22.36;45.33;101332.72;5053260;28;4279;-66
2022/07/07 00:59:44;;;;;;;;;;;;;;;22.35;45.04;101340.59;5052933;28;4273;-66
2022/07/07 01:02:10;;;;;;;;;;;;;;;22.37;45.03;101339.97;5049037;28;5203;-66
2022/07/07 01:04:37;;;;;;;;;;;;;;;22.36;45.09;101338.50;5052174;28;4301;-66
2022/07/07 01:07:03;;;;;;;;;;;;;;;22.37;45.23;101334.19;5053312;28;4246;-66
2022/07/07 01:09:30;;;;;;;;;;;;;;;22.36;45.08;101336.34;5051916;28;5272;-66
2022/07/07 01:11:56;;;;;;;;;;;;;;;22.36;45.10;101335.59;5048143;28;4409;-66
2022/07/07 01:14:23;;;;;;;;;;;;;;;22.37;45.08;101328.41;5050948;28;5707;-66
2022/07/07 01:16:49;;;;;;;;;;;;;;;22.36;45.36;101321.16;5052406;28;4208;-67
2022/07/07 01:19:16;;;;;;;;;;;;;;;22.36;45.41;101319.03;5044114;28;4345;-67
2022/07/07 01:21:44;;;;;;;;;;;;;;;22.36;45.31;101321.16;5049121;28;4203;-66
2022/07/07 01:24:10;;;;;;;;;;;;;;;22.36;45.06;101316.13;5046505;28;4158;-66
2022/07/07 01:26:37;;;;;;;;;;;;;;;22.35;45.44;101319.66;5050950;28;4259;-66
2022/07/07 01:29:03;;;;;;;;;;;;;;;22.36;45.20;101326.94;5046460;28;4208;-66
2022/07/07 01:31:30;;;;;;;;;;;;;;;22.36;45.29;101321.16;5044860;28;5471;-66
2022/07/07 01:33:56;;;;;;;;;;;;;;;22.35;45.29;101319.66;5049398;28;4566;-66
2022/07/07 01:36:22;;;;;;;;;;;;;;;22.34;45.34;101321.81;5051514;28;4269;-66
2022/07/07 01:38:49;;;;;;;;;;;;;;;22.34;45.34;101310.28;5054063;28;5319;-66
2022/07/07 01:41:15;;;;;;;;;;;;;;;22.35;45.20;101308.88;5053758;28;4136;-66
2022/07/07 01:43:42;;;;;;;;;;;;;;;22.35;45.48;101305.25;5046883;28;4179;-66
2022/07/07 01:46:08;;;;;;;;;;;;;;;22.33;45.36;101299.38;5051536;28;5309;-66
2022/07/07 01:48:35;;;;;;;;;;;;;;;22.36;45.43;101300.97;5051323;28;5301;-67
2022/07/07 01:51:01;;;;;;;;;;;;;;;22.34;45.42;101289.34;5049020;28;4337;-66
2022/07/07 01:53:27;;;;;;;;;;;;;;;22.35;45.54;101302.34;5050901;28;4390;-66
2022/07/07 01:55:54;;;;;;;;;;;;;;;22.34;45.47;101295.84;5049282;28;4215;-67
2022/07/07 01:58:21;;;;;;;;;;;;;;;22.34;45.53;101289.34;5049238;28;4447;-67
2022/07/07 02:00:47;;;;;;;;;;;;;;;22.34;45.67;101292.22;5054178;28;5269;-66
2022/07/07 02:03:14;;;;;;;;;;;;;;;22.32;45.52;101287.09;5053089;28;4368;-66
2022/07/07 02:05:40;;;;;;;;;;;;;;;22.32;45.43;101289.25;5051146;28;5150;-67
2022/07/07 02:08:07;;;;;;;;;;;;;;;22.32;45.61;101286.38;5051837;28;4778;-67
2022/07/07 02:13:18;;;;;;;;;;;;;;;22.31;45.83;101274.09;5047538;28;4230;-66
2022/07/07 02:15:44;;;;;;;;;;;;;;;22.30;45.66;101274.72;5050029;28;5228;-67
2022/07/07 02:18:11;;;;;;;;;;;;;;;22.30;45.71;101271.84;5048418;28;4212;-66
2022/07/07 02:20:37;;;;;;;;;;;;;;;22.29;45.62;101264.59;5046944;28;4289;-66
2022/07/07 02:23:04;;;;;;;;;;;;;;;22.29;45.82;101261.72;5048610;28;4246;-66
2022/07/07 02:25:30;;;;;;;;;;;;;;;22.28;46.01;101258.06;5049891;28;4359;-66
2022/07/07 02:27:56;;;;;;;;;;;;;;;22.29;46.02;101268.22;5048017;28;4204;-66
2022/07/07 02:30:23;;;;;;;;;;;;;;;22.29;45.82;101264.59;5053298;28;5412;-66
2022/07/07 02:32:49;;;;;;;;;;;;;;;22.28;46.04;101257.31;5047520;28;4213;-66
2022/07/07 02:35:16;;;;;;;;;;;;;;;22.28;45.98;101254.44;5054701;28;5224;-66
2022/07/07 02:37:42;;;;;;;;;;;;;;;22.28;46.12;101258.06;5053466;28;5257;-66
2022/07/07 02:40:09;;;;;;;;;;;;;;;22.28;46.11;101252.28;5051277;28;5372;-67
2022/07/07 02:42:35;;;;;;;;;;;;;;;22.28;46.12;101251.56;5050115;28;5526;-66
2022/07/07 02:45:01;;;;;;;;;;;;;;;22.28;46.16;101248.66;5052862;28;5376;-66
2022/07/07 02:47:28;;;;;;;;;;;;;;;22.28;46.05;101242.91;5050967;28;5098;-66
2022/07/07 02:49:54;;;;;;;;;;;;;;;22.28;46.27;101246.53;5048094;28;4179;-66
2022/07/07 02:52:21;;;;;;;;;;;;;;;22.28;46.07;101240.00;5050938;28;5324;-66
2022/07/07 02:54:47;;;;;;;;;;;;;;;22.28;46.27;101234.25;5048954;28;4359;-66
2022/07/07 02:57:13;;;;;;;;;;;;;;;22.28;45.93;101229.22;5051832;28;4384;-66
2022/07/07 02:59:40;;;;;;;;;;;;;;;22.28;46.21;101234.97;5045848;28;5505;-66
2022/07/07 03:02:06;;;;;;;;;;;;;;;22.28;46.12;101225.59;5046527;28;6275;-66
2022/07/07 03:04:33;;;;;;;;;;;;;;;22.28;46.35;101225.59;5045260;28;4172;-66
2022/07/07 03:06:59;;;;;;;;;;;;;;;22.28;46.01;101231.38;5047231;28;4242;-66
2022/07/07 03:09:25;;;;;;;;;;;;;;;22.28;46.42;101222.72;5047484;28;4362;-66
2022/07/07 03:11:52;;;;;;;;;;;;;;;22.28;46.43;101226.31;5048969;28;4154;-66
2022/07/07 03:14:18;;;;;;;;;;;;;;;22.27;46.24;101221.22;5047436;28;4064;-67
2022/07/07 03:16:45;;;;;;;;;;;;;;;22.27;46.41;101221.22;5045951;28;4140;-66
2022/07/07 03:19:11;;;;;;;;;;;;;;;22.26;46.39;101216.84;5047187;28;4071;-66
2022/07/07 03:21:37;;;;;;;;;;;;;;;22.27;46.30;101221.97;5053150;28;5402;-66
2022/07/07 03:24:04;;;;;;;;;;;;;;;22.26;46.28;101219.72;5045245;28;4245;-67
2022/07/07 03:26:31;;;;;;;;;;;;;;;22.26;46.51;101214.69;5049686;28;4186;-66
2022/07/07 03:28:57;;;;;;;;;;;;;;;22.26;46.69;101206.03;5048981;28;4152;-67
2022/07/07 03:31:23;;;;;;;;;;;;;;;22.27;46.38;101212.56;5049607;28;4226;-63
2022/07/07 03:33:50;;;;;;;;;;;;;;;22.27;46.45;101209.69;5047929;28;4562;-66
2022/07/07 03:36:17;;;;;;;;;;;;;;;22.26;46.62;101208.19;5051727;28;5475;-66
2022/07/07 03:38:44;;;;;;;;;;;;;;;22.27;46.44;101221.22;5050872;28;5906;-66
2022/07/07 03:41:10;;;;;;;;;;;;;;;22.26;46.45;101214.69;5048724;28;5404;-66
2022/07/07 03:43:37;;;;;;;;;;;;;;;22.26;46.48;101208.19;5053626;28;4165;-66
2022/07/07 03:46:03;;;;;;;;;;;;;;;22.26;46.51;101214.69;5048984;28;4198;-66
2022/07/07 03:48:30;;;;;;;;;;;;;;;22.26;46.61;101208.19;5049500;28;5272;-66
2022/07/07 03:50:56;;;;;;;;;;;;;;;22.25;46.54;101204.56;5048197;28;4263;-67
2022/07/07 03:53:22;;;;;;;;;;;;;;;22.26;46.48;101208.19;5048118;28;4956;-67
2022/07/07 03:55:49;;;;;;;;;;;;;;;22.26;46.80;101196.66;5047288;28;5171;-66
2022/07/07 03:58:16;;;;;;;;;;;;;;;22.26;46.65;101205.31;5050935;28;4231;-66
2022/07/07 04:00:42;;;;;;;;;;;;;;;22.24;46.86;101194.44;5050429;28;4224;-67
2022/07/07 04:03:09;;;;;;;;;;;;;;;22.25;46.71;101189.41;5050271;28;4242;-66
2022/07/07 04:05:35;;;;;;;;;;;;;;;22.24;46.70;101191.56;5047193;28;4240;-66
2022/07/07 04:08:02;;;;;;;;;;;;;;;22.25;46.74;101186.53;5053731;28;5327;-66
2022/07/07 04:10:28;;;;;;;;;;;;;;;22.24;46.90;101185.00;5050682;28;5577;-67
2022/07/07 04:12:54;;;;;;;;;;;;;;;22.24;46.78;101177.13;5046220;28;4168;-66
2022/07/07 04:15:21;;;;;;;;;;;;;;;22.25;46.92;101177.88;5048906;28;4672;-67
2022/07/07 04:17:47;;;;;;;;;;;;;;;22.24;47.02;101176.38;5055484;28;4237;-67
2022/07/07 04:20:14;;;;;;;;;;;;;;;22.24;47.05;101170.59;5051752;28;4270;-66
2022/07/07 04:22:40;;;;;;;;;;;;;;;22.24;46.92;101170.59;5051713;28;4093;-66
2022/07/07 04:25:07;;;;;;;;;;;;;;;22.23;47.01;101172.00;5050447;28;4156;-66
2022/07/07 04:27:33;;;;;;;;;;;;;;;22.24;46.91;101156.16;5047453;28;5195;-66
2022/07/07 04:30:00;;;;;;;;;;;;;;;22.23;46.84;101152.56;5054574;28;4379;-66
2022/07/07 04:32:26;;;;;;;;;;;;;;;22.23;46.98;101151.81;5048921;28;5347;-66
2022/07/07 04:34:52;;;;;;;;;;;;;;;22.23;47.15;101155.44;5051884;28;5298;-65
2022/07/07 04:37:19;;;;;;;;;;;;;;;22.23;47.09;101155.44;5052560;28;4119;-65
2022/07/07 04:39:45;;;;;;;;;;;;;;;22.23;47.18;101146.03;5043817;28;4166;-64
2022/07/07 04:42:11;;;;;;;;;;;;;;;22.22;47.22;101139.53;5050793;28;4235;-63
2022/07/07 04:44:38;;;;;;;;;;;;;;;22.24;47.26;101138.88;5050029;28;4167;-64
2022/07/07 04:47:04;;;;;;;;;;;;;;;22.24;47.14;101127.31;5053205;28;4109;-65
2022/07/07 04:49:31;;;;;;;;;;;;;;;22.23;47.19;101128.75;5054617;28;5247;-65
2022/07/07 04:51:57;;;;;;;;;;;;;;;22.23;46.95;101134.50;5049193;28;4257;-65
2022/07/07 04:54:23;;;;;;;;;;;;;;;22.22;47.11;101128.00;5051767;28;5283;-66
2022/07/07 04:56:50;;;;;;;;;;;;;;;22.22;47.13;101133.78;5051970;28;5387;-65
2022/07/07 04:59:16;;;;;;;;;;;;;;;22.23;47.13;101140.28;5051012;28;4263;-65
2022/07/07 05:01:43;;;;;;;;;;;;;;;22.23;47.22;101125.84;5041370;28;4183;-66
2022/07/07 05:04:09;;;;;;;;;;;;;;;22.23;47.42;101134.50;5053684;28;4251;-66
2022/07/07 05:06:35;;;;;;;;;;;;;;;22.01;48.58;101134.97;5049066;28;5308;-65
2022/07/07 05:09:02;;;;;;;;;;;;;;;21.94;49.47;101122.47;5049343;28;4272;-72
2022/07/07 05:11:29;;;;;;;;;;;;;;;22.07;50.07;101128.75;5043445;28;4376;-72
2022/07/07 05:13:55;;;;;;;;;;;;;;;22.06;50.12;101116.47;5046563;28;4087;-73
2022/07/07 05:16:21;;;;;;;;;;;;;;;22.11;50.44;101121.00;5052011;28;4306;-73
2022/07/07 05:18:48;;;;;;;;;;;;;;;22.22;50.18;101116.47;5042641;28;4900;-75
2022/07/07 05:21:14;;;;;;;;;;;;;;;22.10;51.24;101125.28;5051152;28;4298;-72
2022/07/07 05:23:40;;;;;;;;;;;;;;;22.06;51.33;101128.00;5047773;28;4163;-72
2022/07/07 05:26:07;;;;;;;;;;;;;;;22.17;51.27;101121.28;5052481;28;4069;-75
2022/07/07 05:28:36;;;;;;;;;;;;;;;21.87;52.03;101117.78;5050606;28;4559;-75
2022/07/07 05:31:02;;;;;;;;;;;;;;;22.21;51.66;101119.97;5052324;28;4162;-75
2022/07/07 05:33:29;;;;;;;;;;;;;;;22.13;51.77;101118.22;5054867;28;5329;-79
2022/07/07 05:35:56;;;;;;;;;;;;;;;22.08;52.31;101118.69;5054363;28;4186;-75
2022/07/07 05:38:27;;;;;;;;;;;;;;;22.16;52.30;101113.28;5052513;28;5379;-73
2022/07/07 05:40:53;;;;;;;;;;;;;;;21.87;52.80;101114.91;5049097;28;4165;-78
2022/07/07 05:43:20;;;;;;;;;;;;;;;22.11;52.15;101118.13;5046504;28;5278;-70
2022/07/07 05:45:46;;;;;;;;;;;;;;;21.90;52.96;101115.78;5046368;28;4186;-73
2022/07/07 05:48:13;;;;;;;;;;;;;;;21.93;53.30;101120.22;5050315;28;4404;-72
2022/07/07 05:50:39;;;;;;;;;;;;;;;22.06;53.20;101112.81;5030513;28;6772;-80
2022/07/07 05:53:05;;;;;;;;;;;;;;;22.08;52.68;101119.44;5051153;28;4108;-74
2022/07/07 05:55:32;;;;;;;;;;;;;;;21.84;53.65;101112.59;5043430;28;4396;-73
2022/07/07 05:57:58;;;;;;;;;;;;;;;22.13;52.93;101114.59;5047163;28;4218;-73
2022/07/07 06:00:25;;;;;;;;;;;;;;;22.18;52.99;101117.00;5051020;28;4300;-73
2022/07/07 06:02:51;;;;;;;;;;;;;;;22.20;52.56;101115.59;5049885;28;4264;-73
2022/07/07 06:05:18;;;;;;;;;;;;;;;22.10;53.05;101122.41;5049462;28;4189;-73
2022/07/07 06:07:44;;;;;;;;;;;;;;;22.17;53.25;101108.97;5048780;28;5404;-73
2022/07/07 06:10:11;;;;;;;;;;;;;;;22.28;52.46;101108.03;5049498;28;5387;-69
2022/07/07 06:12:38;;;;;;;;;;;;;;;22.15;53.01;101109.66;5054703;28;4330;-73
2022/07/07 06:15:04;;;;;;;;;;;;;;;22.21;52.80;101109.19;5055475;28;4198;-78
2022/07/07 06:17:30;;;;;;;;;;;;;;;22.23;53.01;101112.16;5056881;28;4319;-72
2022/07/07 06:20:17;;;;;;;;;;;;;;;22.21;53.46;101099.78;5054488;28;4247;-74
2022/07/07 06:22:43;;;;;;;;;;;;;;;22.24;53.22;101104.25;5057850;28;4137;-75
2022/07/07 06:25:11;;;;;;;;;;;;;;;22.10;53.68;101099.31;5056571;28;4349;-81
2022/07/07 06:27:37;;;;;;;;;;;;;;;22.08;53.73;101101.38;5057464;28;5095;-73
2022/07/07 06:30:04;;;;;;;;;;;;;;;22.06;53.91;101102.06;5058598;28;4206;-75
2022/07/07 06:32:30;;;;;;;;;;;;;;;22.10;54.10;101092.81;5053323;28;4611;-80
2022/07/07 06:34:57;;;;;;;;;;;;;;;22.21;53.75;101096.88;5055659;28;4240;-66
2022/07/07 06:37:23;;;;;;;;;;;;;;;22.26;53.23;101087.75;5055643;28;4159;-73
2022/07/07 06:39:50;;;;;;;;;;;;;;;22.28;53.89;101090.00;5049109;28;4170;-71
2022/07/07 06:42:16;;;;;;;;;;;;;;;22.24;53.77;101089.81;5056742;28;4063;-79
2022/07/07 06:44:47;;;;;;;;;;;;;;;22.11;54.16;101089.28;5044605;28;4118;-69
2022/07/07 06:47:14;;;;;;;;;;;;;;;22.02;54.56;101090.34;5054930;28;5481;-75
2022/07/07 06:49:40;;;;;;;;;;;;;;;22.01;54.60;101106.13;5063761;28;4225;-80
2022/07/07 06:52:07;;;;;;;;;;;;;;;22.29;53.76;101098.00;5060062;28;4150;-74
2022/07/07 06:54:33;;;;;;;;;;;;;;;22.37;53.22;101091.81;5066531;28;4190;-78
2022/07/07 06:56:59;;;;;;;;;;;;;;;22.40;53.03;101096.28;5063069;28;5459;-80
2022/07/07 06:59:26;;;;;;;;;;;;;;;22.46;52.94;101096.53;5054432;28;5495;-78
2022/07/07 07:01:52;;;;;;;;;;;;;;;22.43;52.98;101089.22;5052730;28;4212;-79
2022/07/07 07:04:18;;;;;;;;;;;;;;;22.41;53.05;101089.13;5053642;28;4248;-77
2022/07/07 07:06:45;;;;;;;;;;;;;;;22.41;53.45;101089.13;5057520;28;4249;-77
2022/07/07 07:09:13;;;;;;;;;;;;;;;22.42;52.97;101095.63;5054039;28;4182;-80
2022/07/07 07:11:39;;;;;;;;;;;;;;;22.49;52.88;101098.09;5054524;28;4188;-73
2022/07/07 07:14:06;;;;;;;;;;;;;;;22.44;53.33;101092.81;5050297;28;4147;-76
2022/07/07 07:16:32;;;;;;;;;;;;;;;22.41;53.56;101086.22;5051533;28;4191;-74
2022/07/07 07:18:58;;;;;;;;;;;;;;;22.26;53.56;101081.25;5050292;28;4251;-76
2022/07/07 07:21:25;;;;;;;;;;;;;;;22.38;53.60;101088.28;5043635;28;5467;-74
2022/07/07 07:23:52;;;;;;;;;;;;;;;22.25;54.19;101092.06;5052876;28;4234;-72
2022/07/07 07:26:18;;;;;;;;;;;;;;;22.03;55.42;101088.94;5051308;28;4233;-64
2022/07/07 07:28:44;;;;;;;;;;;;;;;22.38;54.71;101087.56;5049159;28;5212;-64
2022/07/07 07:31:11;;;;;;;;;;;;;;;22.63;53.93;101083.53;5051600;28;4258;-65
2022/07/07 07:33:37;;;;;;;;;;;;;;;22.79;53.13;101095.72;5049707;28;5413;-64
2022/07/07 07:36:07;;;;;;;;;;;;;;;22.86;52.85;101085.16;5055059;28;4217;-64
2022/07/07 07:38:35;;;;;;;;;;;;;;;22.81;52.76;101080.59;5055442;28;5332;-67
2022/07/07 07:41:02;;;;;;;;;;;;;;;22.72;52.96;101079.56;5050151;28;5201;-67
2022/07/07 07:43:28;;;;;;;;;;;;;;;22.38;53.85;101064.47;5050631;28;5416;-67
2022/07/07 07:45:55;;;;;;;;;;;;;;;22.34;54.00;101078.72;5053598;28;4203;-66
2022/07/07 07:48:22;;;;;;;;;;;;;;;22.61;53.28;101074.78;5047725;28;4227;-64
2022/07/07 07:50:48;;;;;;;;;;;;;;;22.78;52.77;101076.16;5049386;28;4156;-66
2022/07/07 07:53:15;;;;;;;;;;;;;;;22.85;53.06;101074.28;5049480;28;5324;-67
2022/07/07 07:55:41;;;;;;;;;;;;;;;22.87;52.80;101080.84;5046361;28;5392;-64
2022/07/07 07:58:07;;;;;;;;;;;;;;;22.87;52.78;101077.97;5044779;28;4566;-66
2022/07/07 08:00:34;;;;;;;;;;;;;;;22.87;52.45;101077.97;5048091;28;5290;-65
2022/07/07 08:03:04;;;;;;;;;;;;;;;22.87;52.89;101069.31;5045928;28;4242;-64
2022/07/07 08:05:31;;;;;;;;;;;;;;;22.88;52.25;101075.81;5052191;28;4744;-63
2022/07/07 08:07:57;;;;;;;;;;;;;;;22.74;52.69;101076.75;5052968;28;5064;-65
2022/07/07 08:10:24;;;;;;;;;;;;;;;22.78;52.45;101074.03;5052242;28;4225;-66
2022/07/07 08:12:50;;;;;;;;;;;;;;;22.85;52.08;101075.00;5054101;28;4379;-65
2022/07/07 08:15:16;;;;;;;;;;;;;;;22.90;51.87;101070.88;5049614;28;4190;-66
2022/07/07 08:17:44;;;;;;;;;;;;;;;22.94;51.91;101073.19;5042163;28;4184;-64
2022/07/07 08:20:10;;;;;;;;;;;;;;;22.95;51.87;101072.53;5053077;28;4093;-66
2022/07/07 08:22:37;;;;;;;;;;;;;;;22.74;51.64;101076.75;5048754;28;5260;-68
2022/07/07 08:25:04;;;;;;;;;;;;;;;22.71;52.04;101075.19;5045757;28;4266;-68
2022/07/07 08:27:30;;;;;;;;;;;;;;;22.68;52.21;101072.88;5050310;28;4157;-69
2022/07/07 08:29:56;;;;;;;;;;;;;;;22.68;52.22;101067.13;5051237;28;4152;-69
2022/07/07 08:32:23;;;;;;;;;;;;;;;22.67;52.32;101077.16;5047063;28;4202;-68
2022/07/07 08:34:49;;;;;;;;;;;;;;;22.64;52.46;101066.94;5044035;28;4247;-69
2022/07/07 08:37:16;;;;;;;;;;;;;;;22.61;52.23;101065.38;5049186;28;5077;-68
2022/07/07 08:39:42;;;;;;;;;;;;;;;22.61;52.37;101069.00;5048883;28;4524;-62
2022/07/07 08:42:08;;;;;;;;;;;;;;;22.61;52.37;101071.13;5052510;28;4239;-62
2022/07/07 08:44:35;;;;;;;;;;;;;;;22.59;52.30;101072.56;5049469;28;4179;-62
2022/07/07 08:47:01;;;;;;;;;;;;;;;22.59;52.16;101072.56;5048518;28;4186;-62
2022/07/07 08:49:28;;;;;;;;;;;;;;;22.59;52.23;101071.81;5051808;28;4228;-63
2022/07/07 08:51:54;;;;;;;;;;;;;;;22.57;52.29;101075.34;5050359;28;4084;-70
2022/07/07 08:54:21;;;;;;;;;;;;;;;22.68;52.74;101073.63;5051500;28;5076;-65
2022/07/07 08:56:47;;;;;;;;;;;;;;;22.77;53.09;101074.69;5054412;28;4218;-63
2022/07/07 08:59:13;;;;;;;;;;;;;;;22.82;52.62;101064.78;5053629;28;4237;-65
2022/07/07 09:01:40;;;;;;;;;;;;;;;22.87;52.56;101065.69;5053289;28;4276;-67
2022/07/07 09:04:06;;;;;;;;;;;;;;;22.87;52.64;101066.44;5057767;28;4084;-65
2022/07/07 09:06:33;;;;;;;;;;;;;;;22.89;52.18;101057.84;5053345;28;4185;-64
2022/07/07 09:09:01;;;;;;;;;;;;;;;22.91;52.02;101060.81;5048738;28;5461;-65
2022/07/07 09:11:28;;;;;;;;;;;;;;;22.85;51.89;101057.69;5053836;28;5376;-62
2022/07/07 09:14:14;;;;;;;;;;;;;;;22.66;52.30;101064.16;5059921;28;4130;-60
2022/07/07 09:16:40;;;;;;;;;;;;;;;22.56;52.87;101061.56;5058253;28;4559;-65
2022/07/07 09:19:16;;;;;;;;;;;;;;;22.63;52.80;101060.44;5056532;28;5210;-65
2022/07/07 09:21:42;;;;;;;;;;;;;;;22.87;51.99;101054.88;5060101;28;4227;-65
2022/07/07 09:24:09;;;;;;;;;;;;;;;22.83;51.46;101060.47;5056560;28;4245;-66
2022/07/07 09:26:36;;;;;;;;;;;;;;;22.87;51.48;101059.91;5059143;28;5472;-68
2022/07/07 09:29:02;;;;;;;;;;;;;;;22.97;51.71;101063.19;5060445;28;4178;-67
2022/07/07 09:31:47;;;;;;;;;;;;;;;23.03;50.94;101059.84;5059383;28;4314;-64
2022/07/07 09:34:14;;;;;;;;;;;;;;;23.09;51.63;101062.94;5054350;28;6605;-68
2022/07/07 09:39:37;;;;;;;;;;;;;;;22.95;50.92;101058.09;5056417;28;4464;-64
2022/07/07 09:42:27;;;;;;;;;;;;;;;22.89;51.07;101066.50;5056574;28;4257;-64
2022/07/07 09:44:53;;;;;;;;;;;;;;;22.77;54.31;101063.16;5048138;28;5155;-68
2022/07/07 09:47:20;;;;;;;;;;;;;;;22.77;53.69;101060.25;5048170;28;5113;-65
2022/07/07 09:49:57;;;;;;;;;;;;;;;22.94;54.12;101064.53;5050853;28;5304;-67
2022/07/07 09:52:23;;;;;;;;;;;;;;;23.02;52.94;101058.34;5056681;28;5260;-65
2022/07/07 09:54:50;;;;;;;;;;;;;;;23.00;51.94;101064.78;5062033;28;5281;-67
2022/07/07 09:57:16;;;;;;;;;;;;;;;23.03;51.76;101063.47;5048945;28;4196;-71
2022/07/07 09:59:43;;;;;;;;;;;;;;;23.03;51.35;101065.59;5058253;28;4138;-72
2022/07/07 10:02:13;;;;;;;;;;;;;;;23.04;51.36;101070.72;5059158;28;5255;-73
2022/07/07 10:04:39;;;;;;;;;;;;;;;23.04;51.00;101064.19;5060150;28;4211;-69
2022/07/07 10:07:05;;;;;;;;;;;;;;;23.07;51.33;101071.53;5055879;28;4317;-71
2022/07/07 10:09:32;;;;;;;;;;;;;;;23.09;51.26;101077.38;5058715;28;4167;-68
2022/07/07 10:11:58;;;;;;;;;;;;;;;23.12;51.11;101070.28;5061643;28;4129;-68
2022/07/07 10:14:27;;;;;;;;;;;;;;;23.07;51.60;101071.53;5048655;28;4556;-65
2022/07/07 10:16:54;;;;;;;;;;;;;;;23.14;51.45;101076.88;5051800;28;4242;-65
2022/07/07 10:19:21;;;;;;;;;;;;;;;23.16;51.80;101079.13;5058475;28;4059;-64
2022/07/07 10:21:48;;;;;;;;;;;;;;;23.17;51.01;101086.38;5058913;28;4128;-65
2022/07/07 10:24:15;;;;;;;;;;;;;;;22.97;53.03;101078.38;5058306;28;5512;-63
2022/07/07 10:26:42;;;;;;;;;;;;;;;22.87;54.19;101083.00;5055883;28;5605;-63
2022/07/07 10:29:09;;;;;;;;;;;;;;;22.91;53.87;101083.91;5053392;28;3997;-61
2022/07/07 10:31:36;;;;;;;;;;;;;;;23.07;55.30;101088.88;5049650;28;4216;-63
2022/07/07 10:34:05;;;;;;;;;;;;;;;23.19;55.10;101087.19;5052496;28;4239;-62
2022/07/07 10:36:57;;;;;;;;;;;;;;;23.20;55.10;101090.81;5051267;28;4090;-60
2022/07/07 10:39:25;;;;;;;;;;;;;;;23.24;55.65;101084.47;5054839;28;4188;-64
2022/07/07 10:41:58;;;;;;;;;;;;;;;23.25;55.49;101092.47;5063040;28;4233;-60
2022/07/07 10:48:08;;;;;;;;;;;;;;;23.27;54.44;101095.41;5071077;27;1851;-60
2022/07/07 10:50:34;;;;;;;;;;;;;;;23.29;54.68;101095.50;5073009;28;1747;-60
2022/07/07 10:53:01;;;;;;;;;;;;;;;23.31;54.61;101101.34;5073600;28;1656;-60
2022/07/07 10:55:54;;;;;;;;;;;;;;;23.35;54.19;101092.09;5093975;27;2380;-60
2022/07/07 10:58:51;;;;;;;;;;;;;;;23.37;54.10;101107.38;5061131;28;2441;-61
2022/07/07 11:01:17;;;;;;;;;;;;;;;23.39;53.78;101101.66;5070920;28;2733;-62
2022/07/07 11:03:43;;;;;;;;;;;;;;;23.42;53.62;101094.56;5070511;28;3331;-60
2022/07/07 11:06:10;;;;;;;;;;;;;;;23.45;53.57;101091.75;5074152;28;2285;-60
2022/07/07 11:08:36;;;;;;;;;;;;;;;23.44;53.83;101102.56;5074900;28;1699;-61
2022/07/07 11:11:03;;;;;;;;;;;;;;;23.46;53.34;101101.91;5072765;28;2602;-60
2022/07/07 11:13:30;;;;;;;;;;;;;;;23.51;53.40;101101.38;5062745;28;3004;-69
2022/07/07 11:16:15;;;;;;;;;;;;;;;23.24;54.44;101099.63;5060659;28;3406;-60
2022/07/07 11:18:42;;;;;;;;;;;;;;;23.29;54.08;101098.38;5071603;28;2712;-61
2022/07/07 11:21:08;;;;;;;;;;;;;;;23.36;53.92;101097.19;5065842;28;3127;-60
2022/07/07 11:23:47;;;;;;;;;;;;;;;23.38;53.51;101105.94;5070651;28;2984;-61
2022/07/07 11:26:14;;;;;;;;;;;;;;;23.40;53.36;101094.47;5070432;28;2580;-60
2022/07/07 11:28:47;;;;;;;;;;;;;;;23.42;52.80;101099.59;5074712;28;1640;-59
2022/07/07 11:31:14;;;;;;;;;;;;;;;23.42;52.66;101099.59;5069348;28;2636;-61
2022/07/07 11:33:40;;;;;;;;;;;;;;;23.44;53.11;101107.59;5065033;28;2830;-61
2022/07/07 11:36:10;;;;;;;;;;;;;;;23.44;52.88;101107.59;5070453;28;1488;-61
2022/07/07 11:38:37;;;;;;;;;;;;;;;23.41;52.70;101104.63;5070231;28;2424;-62
2022/07/07 11:41:03;;;;;;;;;;;;;;;23.40;52.75;101103.13;5061445;28;3378;-64
2022/07/07 11:43:29;;;;;;;;;;;;;;;23.44;52.74;101107.59;5065385;28;2983;-62
2022/07/07 11:45:57;;;;;;;;;;;;;;;23.40;52.56;101102.41;5075567;28;1973;-64
2022/07/07 11:48:23;;;;;;;;;;;;;;;23.22;53.24;101105.34;5074106;28;2753;-63
2022/07/07 11:50:49;;;;;;;;;;;;;;;23.33;52.69;101100.69;5080737;28;2837;-63
2022/07/07 11:53:16;;;;;;;;;;;;;;;23.05;53.71;101094.56;5094502;28;2653;-63
2022/07/07 11:55:43;;;;;;;;;;;;;;;23.13;53.45;101094.88;5093496;28;2670;-63
2022/07/07 11:58:09;;;;;;;;;;;;;;;23.33;52.80;101089.88;5080903;28;3071;-63
2022/07/07 12:00:37;;;;;;;;;;;;;;;23.43;52.69;101092.41;5073960;28;2755;-62
2022/07/07 12:03:04;;;;;;;;;;;;;;;23.27;53.39;101100.44;5075714;28;2822;-63
2022/07/07 12:05:35;;;;;;;;;;;;;;;23.29;54.16;101086.81;5079509;28;2854;-63
2022/07/07 12:08:02;;;;;;;;;;;;;;;23.26;53.59;101087.44;5074813;28;2764;-63
2022/07/07 12:10:37;;;;;;;;;;;;;;;23.21;52.86;101092.31;5063514;28;3296;-64
2022/07/07 12:13:04;;;;;;;;;;;;;;;23.19;53.22;101089.34;5069001;28;2643;-64
2022/07/07 12:15:34;;;;;;;;;;;;;;;23.02;53.36;101087.22;5079541;28;2491;-64
2022/07/07 12:18:00;;;;;;;;;;;;;;;23.00;53.37;101088.63;5079302;28;3546;-67
2022/07/07 12:20:27;;;;;;;;;;;;;;;23.02;53.39;101093.00;5084123;28;2640;-69
2022/07/07 12:23:00;;;;;;;;;;;;;;;23.04;53.37;101090.19;5085804;28;1592;-66
2022/07/07 12:25:27;;;;;;;;;;;;;;;23.03;53.20;101094.50;5083695;28;2407;-64
2022/07/07 12:28:08;;;;;;;;;;;;;;;23.09;53.04;101094.72;5082302;28;2027;-66
2022/07/07 12:30:35;;;;;;;;;;;;;;;23.15;52.78;101089.19;5080652;28;2877;-65
2022/07/07 12:33:02;;;;;;;;;;;;;;;23.16;52.33;101085.63;5080234;28;2735;-65
2022/07/07 12:35:35;;;;;;;;;;;;;;;23.22;52.79;101085.13;5082332;28;2944;-66
2022/07/07 12:38:02;;;;;;;;;;;;;;;23.25;52.12;101089.59;5082418;28;3049;-68
2022/07/07 12:40:32;;;;;;;;;;;;;;;23.28;52.26;101104.84;5081353;28;3473;-68
2022/07/07 12:43:09;;;;;;;;;;;;;;;23.31;52.21;101104.25;5079192;28;3008;-67
2022/07/07 12:45:36;;;;;;;;;;;;;;;23.28;52.22;101102.69;5077387;28;3249;-69
2022/07/07 12:48:02;;;;;;;;;;;;;;;23.30;52.13;101097.00;5077140;28;2752;-66
2022/07/07 12:50:29;;;;;;;;;;;;;;;23.37;51.98;101098.69;5073115;28;2862;-63
2022/07/07 12:52:59;;;;;;;;;;;;;;;23.40;51.83;101103.13;5073532;28;2831;-63
2022/07/07 12:55:32;;;;;;;;;;;;;;;23.38;51.64;101105.94;5071220;28;2841;-64
2022/07/07 12:58:02;;;;;;;;;;;;;;;23.14;52.56;101099.25;5068990;28;3364;-65